sensor_id;sensor_type;location;lat;lon;timestamp;temperature;humidity
56308;DHT22;42217;50.422;7.210;2022-09-09T00:06:54;14.80;99.90
56308;DHT22;42217;50.422;7.210;2022-09-09T00:09:23;14.80;99.90
56308;DHT22;42217;50.422;7.210;2022-09-09T00:17:24;14.70;99.90
56308;DHT22;42217;50.422;7.210;2022-09-09T00:20:13;14.70;99.90
56308;DHT22;42217;50.422;7.210;2022-09-09T00:22:46;14.70;99.90
56308;DHT22;42217;50.422;7.210;2022-09-09T00:25:23;14.70;99.90
56308;DHT22;42217;50.422;7.210;2022-09-09T00:27:52;14.70;99.90
56308;DHT22;42217;50.422;7.210;2022-09-09T00:30:23;14.70;99.90
56308;DHT22;42217;50.422;7.210;2022-09-09T00:32:54;14.60;99.90
56308;DHT22;42217;50.422;7.210;2022-09-09T00:38:00;14.70;99.90
56308;DHT22;42217;50.422;7.210;2022-09-09T00:40:33;14.70;99.90
56308;DHT22;42217;50.422;7.210;2022-09-09T00:43:25;14.60;99.90
56308;DHT22;42217;50.422;7.210;2022-09-09T01:02:50;14.50;99.90
56308;DHT22;42217;50.422;7.210;2022-09-09T01:07:58;14.60;99.90
56308;DHT22;42217;50.422;7.210;2022-09-09T01:10:39;14.60;99.90
56308;DHT22;42217;50.422;7.210;2022-09-09T01:13:19;14.60;99.90
56308;DHT22;42217;50.422;7.210;2022-09-09T01:15:48;14.70;99.90
56308;DHT22;42217;50.422;7.210;2022-09-09T01:18:17;14.60;99.90
56308;DHT22;42217;50.422;7.210;2022-09-09T01:26:23;14.60;99.90
56308;DHT22;42217;50.422;7.210;2022-09-09T01:28:51;14.70;99.90
56308;DHT22;42217;50.422;7.210;2022-09-09T01:33:54;14.70;99.90
56308;DHT22;42217;50.422;7.210;2022-09-09T01:36:22;14.70;99.90
56308;DHT22;42217;50.422;7.210;2022-09-09T01:38:49;14.60;99.90
56308;DHT22;42217;50.422;7.210;2022-09-09T01:41:15;14.60;99.90
56308;DHT22;42217;50.422;7.210;2022-09-09T01:43:41;14.70;99.90
56308;DHT22;42217;50.422;7.210;2022-09-09T01:46:07;14.70;99.90
56308;DHT22;42217;50.422;7.210;2022-09-09T01:48:33;14.70;99.90
56308;DHT22;42217;50.422;7.210;2022-09-09T01:50:59;14.70;99.90
56308;DHT22;42217;50.422;7.210;2022-09-09T01:53:25;14.70;99.90
56308;DHT22;42217;50.422;7.210;2022-09-09T02:04:36;14.60;99.90
56308;DHT22;42217;50.422;7.210;2022-09-09T02:07:09;14.70;99.90
56308;DHT22;42217;50.422;7.210;2022-09-09T02:09:39;14.60;99.90
56308;DHT22;42217;50.422;7.210;2022-09-09T02:12:10;14.50;99.90
56308;DHT22;42217;50.422;7.210;2022-09-09T02:14:41;14.60;99.90
56308;DHT22;42217;50.422;7.210;2022-09-09T02:17:10;14.60;99.90
56308;DHT22;42217;50.422;7.210;2022-09-09T02:20:07;14.50;99.90
56308;DHT22;42217;50.422;7.210;2022-09-09T02:22:35;14.70;99.90
56308;DHT22;42217;50.422;7.210;2022-09-09T02:25:06;14.80;99.90
56308;DHT22;42217;50.422;7.210;2022-09-09T02:27:33;14.80;99.90
56308;DHT22;42217;50.422;7.210;2022-09-09T02:30:01;14.80;99.90
56308;DHT22;42217;50.422;7.210;2022-09-09T02:32:30;14.80;99.90
56308;DHT22;42217;50.422;7.210;2022-09-09T02:35:04;14.80;99.90
56308;DHT22;42217;50.422;7.210;2022-09-09T02:37:37;14.70;99.90
56308;DHT22;42217;50.422;7.210;2022-09-09T02:40:05;14.80;99.90
56308;DHT22;42217;50.422;7.210;2022-09-09T02:42:31;14.90;99.90
56308;DHT22;42217;50.422;7.210;2022-09-09T02:44:57;14.90;99.90
56308;DHT22;42217;50.422;7.210;2022-09-09T02:50:25;14.90;99.90
56308;DHT22;42217;50.422;7.210;2022-09-09T02:55:55;14.90;99.90
56308;DHT22;42217;50.422;7.210;2022-09-09T02:58:23;14.90;99.90
56308;DHT22;42217;50.422;7.210;2022-09-09T03:00:51;14.90;99.90
56308;DHT22;42217;50.422;7.210;2022-09-09T03:03:19;14.90;99.90
56308;DHT22;42217;50.422;7.210;2022-09-09T03:05:45;14.90;99.90
56308;DHT22;42217;50.422;7.210;2022-09-09T03:08:13;14.90;99.90
56308;DHT22;42217;50.422;7.210;2022-09-09T03:10:39;14.80;99.90
56308;DHT22;42217;50.422;7.210;2022-09-09T03:13:06;14.80;99.90
56308;DHT22;42217;50.422;7.210;2022-09-09T03:15:33;14.70;99.90
56308;DHT22;42217;50.422;7.210;2022-09-09T03:17:59;14.80;99.90
56308;DHT22;42217;50.422;7.210;2022-09-09T03:20:27;14.70;99.90
56308;DHT22;42217;50.422;7.210;2022-09-09T03:22:54;14.70;99.90
56308;DHT22;42217;50.422;7.210;2022-09-09T03:25:20;14.70;99.90
56308;DHT22;42217;50.422;7.210;2022-09-09T03:27:49;14.60;99.90
56308;DHT22;42217;50.422;7.210;2022-09-09T03:30:18;14.60;99.90
56308;DHT22;42217;50.422;7.210;2022-09-09T03:32:45;14.70;99.90
56308;DHT22;42217;50.422;7.210;2022-09-09T03:35:11;14.80;99.90
56308;DHT22;42217;50.422;7.210;2022-09-09T03:37:36;14.60;99.90
56308;DHT22;42217;50.422;7.210;2022-09-09T03:40:04;14.60;99.90
56308;DHT22;42217;50.422;7.210;2022-09-09T03:42:30;14.40;99.90
56308;DHT22;42217;50.422;7.210;2022-09-09T03:44:56;14.40;99.90
56308;DHT22;42217;50.422;7.210;2022-09-09T03:47:31;14.40;99.90
56308;DHT22;42217;50.422;7.210;2022-09-09T03:49:57;14.50;99.90
56308;DHT22;42217;50.422;7.210;2022-09-09T03:52:23;14.40;99.90
56308;DHT22;42217;50.422;7.210;2022-09-09T03:54:52;14.40;99.90
56308;DHT22;42217;50.422;7.210;2022-09-09T03:57:19;14.40;99.90
56308;DHT22;42217;50.422;7.210;2022-09-09T03:59:44;14.30;99.90
56308;DHT22;42217;50.422;7.210;2022-09-09T04:02:10;14.30;99.90
56308;DHT22;42217;50.422;7.210;2022-09-09T04:04:36;14.30;99.90
56308;DHT22;42217;50.422;7.210;2022-09-09T04:07:02;14.30;99.90
56308;DHT22;42217;50.422;7.210;2022-09-09T04:09:28;14.30;99.90
56308;DHT22;42217;50.422;7.210;2022-09-09T04:11:53;14.40;99.90
56308;DHT22;42217;50.422;7.210;2022-09-09T04:14:20;14.50;99.90
56308;DHT22;42217;50.422;7.210;2022-09-09T04:16:46;14.40;99.90
56308;DHT22;42217;50.422;7.210;2022-09-09T04:19:13;14.30;99.90
56308;DHT22;42217;50.422;7.210;2022-09-09T04:21:40;14.20;99.90
56308;DHT22;42217;50.422;7.210;2022-09-09T04:24:09;14.10;99.90
56308;DHT22;42217;50.422;7.210;2022-09-09T04:26:35;14.00;99.90
56308;DHT22;42217;50.422;7.210;2022-09-09T04:29:03;14.00;99.90
56308;DHT22;42217;50.422;7.210;2022-09-09T04:31:29;13.90;99.90
56308;DHT22;42217;50.422;7.210;2022-09-09T04:33:54;13.90;99.90
56308;DHT22;42217;50.422;7.210;2022-09-09T04:36:20;13.90;99.90
56308;DHT22;42217;50.422;7.210;2022-09-09T04:38:46;14.10;99.90
56308;DHT22;42217;50.422;7.210;2022-09-09T04:41:14;14.20;99.90
56308;DHT22;42217;50.422;7.210;2022-09-09T04:43:40;14.10;99.90
56308;DHT22;42217;50.422;7.210;2022-09-09T04:46:06;14.00;99.90
56308;DHT22;42217;50.422;7.210;2022-09-09T04:48:32;14.00;99.90
56308;DHT22;42217;50.422;7.210;2022-09-09T04:51:00;14.00;99.90
56308;DHT22;42217;50.422;7.210;2022-09-09T04:53:27;13.90;99.90
56308;DHT22;42217;50.422;7.210;2022-09-09T04:58:29;13.90;99.90
56308;DHT22;42217;50.422;7.210;2022-09-09T05:00:54;13.90;99.90
56308;DHT22;42217;50.422;7.210;2022-09-09T05:03:20;13.90;99.90
56308;DHT22;42217;50.422;7.210;2022-09-09T05:05:45;13.90;99.90
56308;DHT22;42217;50.422;7.210;2022-09-09T05:08:11;13.90;99.90
56308;DHT22;42217;50.422;7.210;2022-09-09T05:10:38;14.00;99.90
56308;DHT22;42217;50.422;7.210;2022-09-09T05:13:04;13.90;99.90
56308;DHT22;42217;50.422;7.210;2022-09-09T05:15:30;13.80;99.90
56308;DHT22;42217;50.422;7.210;2022-09-09T05:18:00;13.70;99.90
56308;DHT22;42217;50.422;7.210;2022-09-09T05:20:27;13.70;99.90
56308;DHT22;42217;50.422;7.210;2022-09-09T05:22:56;13.80;99.90
56308;DHT22;42217;50.422;7.210;2022-09-09T05:25:22;14.00;99.90
56308;DHT22;42217;50.422;7.210;2022-09-09T05:27:49;14.00;99.90
56308;DHT22;42217;50.422;7.210;2022-09-09T05:30:15;14.00;99.90
56308;DHT22;42217;50.422;7.210;2022-09-09T05:32:44;14.10;99.90
56308;DHT22;42217;50.422;7.210;2022-09-09T05:35:10;14.30;99.90
56308;DHT22;42217;50.422;7.210;2022-09-09T05:37:36;14.40;99.90
56308;DHT22;42217;50.422;7.210;2022-09-09T05:40:02;14.60;99.90
56308;DHT22;42217;50.422;7.210;2022-09-09T05:42:31;14.60;99.90
56308;DHT22;42217;50.422;7.210;2022-09-09T05:44:58;14.60;99.90
56308;DHT22;42217;50.422;7.210;2022-09-09T05:47:24;14.60;99.90
56308;DHT22;42217;50.422;7.210;2022-09-09T05:49:54;14.70;99.90
56308;DHT22;42217;50.422;7.210;2022-09-09T05:52:20;14.80;99.90
56308;DHT22;42217;50.422;7.210;2022-09-09T05:54:46;14.80;99.90
56308;DHT22;42217;50.422;7.210;2022-09-09T05:57:12;14.90;99.90
56308;DHT22;42217;50.422;7.210;2022-09-09T05:59:38;15.00;99.90
56308;DHT22;42217;50.422;7.210;2022-09-09T06:02:03;15.00;99.90
56308;DHT22;42217;50.422;7.210;2022-09-09T06:04:29;15.00;99.90
56308;DHT22;42217;50.422;7.210;2022-09-09T06:06:55;15.10;99.90
56308;DHT22;42217;50.422;7.210;2022-09-09T06:09:21;15.20;99.90
56308;DHT22;42217;50.422;7.210;2022-09-09T06:11:47;15.30;99.90
56308;DHT22;42217;50.422;7.210;2022-09-09T06:14:12;15.40;99.90
56308;DHT22;42217;50.422;7.210;2022-09-09T06:16:38;15.50;99.90
56308;DHT22;42217;50.422;7.210;2022-09-09T06:19:04;15.50;99.90
56308;DHT22;42217;50.422;7.210;2022-09-09T06:21:32;15.50;99.90
56308;DHT22;42217;50.422;7.210;2022-09-09T06:23:59;15.60;99.90
56308;DHT22;42217;50.422;7.210;2022-09-09T06:26:32;15.50;99.90
56308;DHT22;42217;50.422;7.210;2022-09-09T06:28:59;15.60;99.90
56308;DHT22;42217;50.422;7.210;2022-09-09T06:31:27;15.60;99.90
56308;DHT22;42217;50.422;7.210;2022-09-09T06:33:56;15.60;99.90
56308;DHT22;42217;50.422;7.210;2022-09-09T06:36:23;15.70;99.90
56308;DHT22;42217;50.422;7.210;2022-09-09T06:38:49;15.70;99.90
56308;DHT22;42217;50.422;7.210;2022-09-09T06:41:17;15.80;99.90
56308;DHT22;42217;50.422;7.210;2022-09-09T06:43:44;15.80;99.90
56308;DHT22;42217;50.422;7.210;2022-09-09T06:46:15;15.90;99.90
56308;DHT22;42217;50.422;7.210;2022-09-09T06:48:43;15.90;99.60
56308;DHT22;42217;50.422;7.210;2022-09-09T06:51:12;15.90;99.00
56308;DHT22;42217;50.422;7.210;2022-09-09T06:53:40;15.90;99.20
56308;DHT22;42217;50.422;7.210;2022-09-09T06:56:33;15.90;99.20
56308;DHT22;42217;50.422;7.210;2022-09-09T06:59:01;15.90;99.70
56308;DHT22;42217;50.422;7.210;2022-09-09T07:01:47;16.10;99.10
56308;DHT22;42217;50.422;7.210;2022-09-09T07:04:13;16.10;97.80
56308;DHT22;42217;50.422;7.210;2022-09-09T07:06:44;16.10;98.00
56308;DHT22;42217;50.422;7.210;2022-09-09T07:09:12;16.10;98.10
56308;DHT22;42217;50.422;7.210;2022-09-09T07:11:40;16.10;97.90
56308;DHT22;42217;50.422;7.210;2022-09-09T07:14:07;16.10;98.70
56308;DHT22;42217;50.422;7.210;2022-09-09T07:16:34;16.20;97.80
56308;DHT22;42217;50.422;7.210;2022-09-09T07:19:03;16.30;96.50
56308;DHT22;42217;50.422;7.210;2022-09-09T07:21:30;16.40;96.90
56308;DHT22;42217;50.422;7.210;2022-09-09T07:23:57;16.40;95.60
56308;DHT22;42217;50.422;7.210;2022-09-09T07:26:29;16.50;96.20
56308;DHT22;42217;50.422;7.210;2022-09-09T07:28:55;16.50;95.30
56308;DHT22;42217;50.422;7.210;2022-09-09T07:31:30;16.40;93.40
56308;DHT22;42217;50.422;7.210;2022-09-09T07:33:57;16.50;94.30
56308;DHT22;42217;50.422;7.210;2022-09-09T07:36:25;16.60;90.60
56308;DHT22;42217;50.422;7.210;2022-09-09T07:38:54;16.70;93.50
56308;DHT22;42217;50.422;7.210;2022-09-09T07:41:25;16.60;90.40
56308;DHT22;42217;50.422;7.210;2022-09-09T07:43:53;16.70;90.10
56308;DHT22;42217;50.422;7.210;2022-09-09T07:46:24;16.70;88.20
56308;DHT22;42217;50.422;7.210;2022-09-09T07:48:55;16.80;89.60
56308;DHT22;42217;50.422;7.210;2022-09-09T07:51:30;16.70;87.70
56308;DHT22;42217;50.422;7.210;2022-09-09T07:53:59;16.80;88.50
56308;DHT22;42217;50.422;7.210;2022-09-09T07:56:26;16.80;90.90
56308;DHT22;42217;50.422;7.210;2022-09-09T07:58:54;16.80;87.80
56308;DHT22;42217;50.422;7.210;2022-09-09T08:01:30;16.70;88.60
56308;DHT22;42217;50.422;7.210;2022-09-09T08:04:04;16.70;89.70
56308;DHT22;42217;50.422;7.210;2022-09-09T08:06:34;16.60;88.90
56308;DHT22;42217;50.422;7.210;2022-09-09T08:09:00;16.50;89.40
56308;DHT22;42217;50.422;7.210;2022-09-09T08:11:27;16.60;89.30
56308;DHT22;42217;50.422;7.210;2022-09-09T08:13:54;16.90;89.40
56308;DHT22;42217;50.422;7.210;2022-09-09T08:16:23;17.20;76.80
56308;DHT22;42217;50.422;7.210;2022-09-09T08:18:52;17.30;71.40
56308;DHT22;42217;50.422;7.210;2022-09-09T08:21:22;17.50;72.10
56308;DHT22;42217;50.422;7.210;2022-09-09T08:23:51;17.70;66.80
56308;DHT22;42217;50.422;7.210;2022-09-09T08:26:25;17.90;65.00
56308;DHT22;42217;50.422;7.210;2022-09-09T08:28:53;18.20;51.10
56308;DHT22;42217;50.422;7.210;2022-09-09T08:31:23;18.20;49.60
56308;DHT22;42217;50.422;7.210;2022-09-09T08:33:50;18.40;43.40
56308;DHT22;42217;50.422;7.210;2022-09-09T08:36:19;18.30;41.20
56308;DHT22;42217;50.422;7.210;2022-09-09T08:38:49;18.10;34.30
56308;DHT22;42217;50.422;7.210;2022-09-09T08:43:43;18.00;35.20
56308;DHT22;42217;50.422;7.210;2022-09-09T08:46:26;17.80;34.60
56308;DHT22;42217;50.422;7.210;2022-09-09T08:49:01;17.50;47.60
56308;DHT22;42217;50.422;7.210;2022-09-09T08:51:29;17.30;54.40
56308;DHT22;42217;50.422;7.210;2022-09-09T08:53:58;17.40;62.50
56308;DHT22;42217;50.422;7.210;2022-09-09T08:56:27;17.40;51.50
56308;DHT22;42217;50.422;7.210;2022-09-09T08:58:56;17.30;47.10
56308;DHT22;42217;50.422;7.210;2022-09-09T09:09:57;17.70;45.80
56308;DHT22;42217;50.422;7.210;2022-09-09T09:12:30;17.90;40.40
56308;DHT22;42217;50.422;7.210;2022-09-09T09:14:59;18.20;36.00
56308;DHT22;42217;50.422;7.210;2022-09-09T09:17:28;18.50;29.00
56308;DHT22;42217;50.422;7.210;2022-09-09T09:19:57;18.60;19.20
56308;DHT22;42217;50.422;7.210;2022-09-09T09:22:50;18.60;16.70
56308;DHT22;42217;50.422;7.210;2022-09-09T09:35:54;19.40;1.00
56308;DHT22;42217;50.422;7.210;2022-09-09T09:38:25;19.30;1.00
56308;DHT22;42217;50.422;7.210;2022-09-09T09:40:57;19.20;1.00
56308;DHT22;42217;50.422;7.210;2022-09-09T09:43:29;19.20;1.00
56308;DHT22;42217;50.422;7.210;2022-09-09T09:45:55;19.00;1.00
56308;DHT22;42217;50.422;7.210;2022-09-09T09:48:23;18.70;13.90
56308;DHT22;42217;50.422;7.210;2022-09-09T09:50:56;18.70;11.50
56308;DHT22;42217;50.422;7.210;2022-09-09T09:53:27;18.90;8.20
56308;DHT22;42217;50.422;7.210;2022-09-09T09:56:05;19.10;2.50
56308;DHT22;42217;50.422;7.210;2022-09-09T09:58:35;19.10;1.00
56308;DHT22;42217;50.422;7.210;2022-09-09T10:01:39;18.70;2.90
56308;DHT22;42217;50.422;7.210;2022-09-09T10:04:17;18.70;9.60
56308;DHT22;42217;50.422;7.210;2022-09-09T10:06:44;18.70;1.00
56308;DHT22;42217;50.422;7.210;2022-09-09T10:09:29;18.70;8.70
56308;DHT22;42217;50.422;7.210;2022-09-09T10:17:23;19.20;1.00
56308;DHT22;42217;50.422;7.210;2022-09-09T10:20:26;19.40;1.00
56308;DHT22;42217;50.422;7.210;2022-09-09T10:28:29;20.20;1.00
56308;DHT22;42217;50.422;7.210;2022-09-09T10:36:24;20.40;1.00
56308;DHT22;42217;50.422;7.210;2022-09-09T10:42:04;20.20;1.00
56308;DHT22;42217;50.422;7.210;2022-09-09T10:44:40;20.20;1.00
56308;DHT22;42217;50.422;7.210;2022-09-09T10:49:47;20.20;1.00
56308;DHT22;42217;50.422;7.210;2022-09-09T10:55:18;20.30;1.00
56308;DHT22;42217;50.422;7.210;2022-09-09T10:57:52;19.90;1.00
56308;DHT22;42217;50.422;7.210;2022-09-09T11:00:38;19.80;1.00
56308;DHT22;42217;50.422;7.210;2022-09-09T11:03:05;19.90;1.00
56308;DHT22;42217;50.422;7.210;2022-09-09T11:05:46;19.70;1.00
56308;DHT22;42217;50.422;7.210;2022-09-09T11:08:20;19.50;1.00
56308;DHT22;42217;50.422;7.210;2022-09-09T11:11:02;19.30;1.00
56308;DHT22;42217;50.422;7.210;2022-09-09T11:16:16;18.60;12.00
56308;DHT22;42217;50.422;7.210;2022-09-09T11:18:45;18.50;19.40
56308;DHT22;42217;50.422;7.210;2022-09-09T11:21:41;18.60;31.30
56308;DHT22;42217;50.422;7.210;2022-09-09T11:24:26;18.70;33.10
56308;DHT22;42217;50.422;7.210;2022-09-09T11:32:29;19.60;9.00
56308;DHT22;42217;50.422;7.210;2022-09-09T11:40:24;19.40;1.00
56308;DHT22;42217;50.422;7.210;2022-09-09T11:43:12;18.90;6.70
56308;DHT22;42217;50.422;7.210;2022-09-09T11:45:40;18.90;8.10
56308;DHT22;42217;50.422;7.210;2022-09-09T11:51:43;19.10;14.10
56308;DHT22;42217;50.422;7.210;2022-09-09T11:56:51;19.50;1.00
56308;DHT22;42217;50.422;7.210;2022-09-09T11:59:27;19.80;1.00
56308;DHT22;42217;50.422;7.210;2022-09-09T12:02:01;20.30;1.00
56308;DHT22;42217;50.422;7.210;2022-09-09T12:04:35;20.40;1.00
56308;DHT22;42217;50.422;7.210;2022-09-09T12:09:52;20.80;1.00
56308;DHT22;42217;50.422;7.210;2022-09-09T12:12:25;20.80;1.00
56308;DHT22;42217;50.422;7.210;2022-09-09T12:17:42;21.00;1.00
56308;DHT22;42217;50.422;7.210;2022-09-09T12:26:04;20.90;1.00
56308;DHT22;42217;50.422;7.210;2022-09-09T12:31:17;21.30;1.00
56308;DHT22;42217;50.422;7.210;2022-09-09T12:33:46;21.30;1.00
56308;DHT22;42217;50.422;7.210;2022-09-09T12:36:25;21.10;1.00
56308;DHT22;42217;50.422;7.210;2022-09-09T12:38:54;21.20;1.00
56308;DHT22;42217;50.422;7.210;2022-09-09T12:41:24;21.80;1.00
56308;DHT22;42217;50.422;7.210;2022-09-09T12:43:51;22.60;99.90
56308;DHT22;42217;50.422;7.210;2022-09-09T12:46:56;22.80;99.90
56308;DHT22;42217;50.422;7.210;2022-09-09T12:49:40;22.70;99.90
56308;DHT22;42217;50.422;7.210;2022-09-09T12:52:42;23.00;99.90
56308;DHT22;42217;50.422;7.210;2022-09-09T12:55:20;22.90;99.90
56308;DHT22;42217;50.422;7.210;2022-09-09T12:57:48;22.60;99.90
56308;DHT22;42217;50.422;7.210;2022-09-09T13:00:20;22.80;99.90
56308;DHT22;42217;50.422;7.210;2022-09-09T13:03:01;22.70;99.90
56308;DHT22;42217;50.422;7.210;2022-09-09T13:05:38;22.80;99.90
56308;DHT22;42217;50.422;7.210;2022-09-09T13:08:12;23.50;39.30
56308;DHT22;42217;50.422;7.210;2022-09-09T13:10:48;23.80;99.90
56308;DHT22;42217;50.422;7.210;2022-09-09T13:13:28;24.00;1.00
56308;DHT22;42217;50.422;7.210;2022-09-09T13:16:03;23.80;1.00
56308;DHT22;42217;50.422;7.210;2022-09-09T13:18:50;23.70;99.90
56308;DHT22;42217;50.422;7.210;2022-09-09T13:21:17;22.90;11.90
56308;DHT22;42217;50.422;7.210;2022-09-09T13:23:49;22.70;99.90
56308;DHT22;42217;50.422;7.210;2022-09-09T13:26:26;22.60;99.90
56308;DHT22;42217;50.422;7.210;2022-09-09T13:28:55;22.80;83.90
56308;DHT22;42217;50.422;7.210;2022-09-09T13:31:35;22.30;99.90
56308;DHT22;42217;50.422;7.210;2022-09-09T13:34:11;22.10;99.90
56308;DHT22;42217;50.422;7.210;2022-09-09T13:36:38;21.70;99.90
56308;DHT22;42217;50.422;7.210;2022-09-09T13:39:12;21.30;99.90
56308;DHT22;42217;50.422;7.210;2022-09-09T13:41:43;20.90;99.90
56308;DHT22;42217;50.422;7.210;2022-09-09T13:44:27;20.70;99.90
56308;DHT22;42217;50.422;7.210;2022-09-09T13:47:18;20.40;1.00
56308;DHT22;42217;50.422;7.210;2022-09-09T13:49:45;20.20;1.00
56308;DHT22;42217;50.422;7.210;2022-09-09T13:52:17;20.00;1.00
56308;DHT22;42217;50.422;7.210;2022-09-09T13:54:51;19.70;1.00
56308;DHT22;42217;50.422;7.210;2022-09-09T13:57:19;18.60;41.70
56308;DHT22;42217;50.422;7.210;2022-09-09T13:59:46;17.20;91.90
56308;DHT22;42217;50.422;7.210;2022-09-09T14:02:13;16.40;93.20
56308;DHT22;42217;50.422;7.210;2022-09-09T14:04:38;16.00;99.30
56308;DHT22;42217;50.422;7.210;2022-09-09T14:07:09;15.70;99.90
56308;DHT22;42217;50.422;7.210;2022-09-09T14:09:36;15.40;97.90
56308;DHT22;42217;50.422;7.210;2022-09-09T14:12:02;15.20;99.90
56308;DHT22;42217;50.422;7.210;2022-09-09T14:14:28;15.10;99.90
56308;DHT22;42217;50.422;7.210;2022-09-09T14:16:53;15.20;99.90
56308;DHT22;42217;50.422;7.210;2022-09-09T14:19:19;15.20;99.90
56308;DHT22;42217;50.422;7.210;2022-09-09T14:21:45;15.40;99.90
56308;DHT22;42217;50.422;7.210;2022-09-09T14:24:10;15.60;99.90
56308;DHT22;42217;50.422;7.210;2022-09-09T14:26:37;15.90;99.90
56308;DHT22;42217;50.422;7.210;2022-09-09T14:29:03;16.20;99.90
56308;DHT22;42217;50.422;7.210;2022-09-09T14:31:29;16.80;99.90
56308;DHT22;42217;50.422;7.210;2022-09-09T14:33:57;17.50;98.60
56308;DHT22;42217;50.422;7.210;2022-09-09T14:36:24;17.90;91.10
56308;DHT22;42217;50.422;7.210;2022-09-09T14:38:51;18.70;89.00
56308;DHT22;42217;50.422;7.210;2022-09-09T14:41:18;19.30;75.10
56308;DHT22;42217;50.422;7.210;2022-09-09T14:43:45;18.70;77.70
56308;DHT22;42217;50.422;7.210;2022-09-09T14:46:13;18.50;82.50
56308;DHT22;42217;50.422;7.210;2022-09-09T14:48:40;18.40;82.60
56308;DHT22;42217;50.422;7.210;2022-09-09T14:51:11;19.20;80.60
56308;DHT22;42217;50.422;7.210;2022-09-09T14:53:38;19.40;70.20
56308;DHT22;42217;50.422;7.210;2022-09-09T14:56:10;19.10;69.60
56308;DHT22;42217;50.422;7.210;2022-09-09T14:58:37;18.60;80.30
56308;DHT22;42217;50.422;7.210;2022-09-09T15:01:14;18.90;83.20
56308;DHT22;42217;50.422;7.210;2022-09-09T15:03:41;20.30;60.20
56308;DHT22;42217;50.422;7.210;2022-09-09T15:06:08;21.40;40.10
56308;DHT22;42217;50.422;7.210;2022-09-09T15:08:35;21.80;21.50
56308;DHT22;42217;50.422;7.210;2022-09-09T15:11:03;21.20;30.20
56308;DHT22;42217;50.422;7.210;2022-09-09T15:13:29;20.70;50.90
56308;DHT22;42217;50.422;7.210;2022-09-09T15:15:55;20.40;50.90
56308;DHT22;42217;50.422;7.210;2022-09-09T15:18:21;19.80;62.70
56308;DHT22;42217;50.422;7.210;2022-09-09T15:20:47;19.40;67.30
56308;DHT22;42217;50.422;7.210;2022-09-09T15:23:13;18.90;72.40
56308;DHT22;42217;50.422;7.210;2022-09-09T15:25:50;18.80;74.90
56308;DHT22;42217;50.422;7.210;2022-09-09T15:28:17;18.50;76.80
56308;DHT22;42217;50.422;7.210;2022-09-09T15:30:43;18.20;85.20
56308;DHT22;42217;50.422;7.210;2022-09-09T15:33:10;18.00;89.50
56308;DHT22;42217;50.422;7.210;2022-09-09T15:35:36;17.90;89.70
56308;DHT22;42217;50.422;7.210;2022-09-09T15:38:02;17.80;87.40
56308;DHT22;42217;50.422;7.210;2022-09-09T15:40:31;17.60;90.30
56308;DHT22;42217;50.422;7.210;2022-09-09T15:42:58;17.70;87.70
56308;DHT22;42217;50.422;7.210;2022-09-09T15:45:25;17.80;82.90
56308;DHT22;42217;50.422;7.210;2022-09-09T15:47:52;17.90;79.70
56308;DHT22;42217;50.422;7.210;2022-09-09T15:50:18;17.80;76.20
56308;DHT22;42217;50.422;7.210;2022-09-09T15:52:43;17.60;82.30
56308;DHT22;42217;50.422;7.210;2022-09-09T15:55:10;17.50;81.50
56308;DHT22;42217;50.422;7.210;2022-09-09T15:57:35;17.30;90.90
56308;DHT22;42217;50.422;7.210;2022-09-09T16:00:03;16.80;93.60
56308;DHT22;42217;50.422;7.210;2022-09-09T16:02:29;16.40;95.00
56308;DHT22;42217;50.422;7.210;2022-09-09T16:04:56;16.30;98.10
56308;DHT22;42217;50.422;7.210;2022-09-09T16:07:23;16.30;97.80
56308;DHT22;42217;50.422;7.210;2022-09-09T16:09:48;16.50;99.50
56308;DHT22;42217;50.422;7.210;2022-09-09T16:12:17;16.70;97.70
56308;DHT22;42217;50.422;7.210;2022-09-09T16:14:42;16.70;98.50
56308;DHT22;42217;50.422;7.210;2022-09-09T16:17:08;17.20;96.40
56308;DHT22;42217;50.422;7.210;2022-09-09T16:19:34;18.50;88.90
56308;DHT22;42217;50.422;7.210;2022-09-09T16:22:00;19.00;71.60
56308;DHT22;42217;50.422;7.210;2022-09-09T16:24:26;18.80;72.10
56308;DHT22;42217;50.422;7.210;2022-09-09T16:26:53;18.90;68.90
56308;DHT22;42217;50.422;7.210;2022-09-09T16:29:20;18.60;71.20
56308;DHT22;42217;50.422;7.210;2022-09-09T16:31:51;18.20;79.90
56308;DHT22;42217;50.422;7.210;2022-09-09T16:34:18;17.80;90.60
56308;DHT22;42217;50.422;7.210;2022-09-09T16:36:44;17.60;91.80
56308;DHT22;42217;50.422;7.210;2022-09-09T16:39:16;17.30;94.20
56308;DHT22;42217;50.422;7.210;2022-09-09T16:41:43;17.00;97.30
56308;DHT22;42217;50.422;7.210;2022-09-09T16:44:12;16.80;99.90
56308;DHT22;42217;50.422;7.210;2022-09-09T16:46:40;16.60;99.90
56308;DHT22;42217;50.422;7.210;2022-09-09T16:49:08;16.30;99.90
56308;DHT22;42217;50.422;7.210;2022-09-09T16:51:41;16.00;99.90
56308;DHT22;42217;50.422;7.210;2022-09-09T16:54:09;15.80;99.90
56308;DHT22;42217;50.422;7.210;2022-09-09T16:56:37;15.70;99.90
56308;DHT22;42217;50.422;7.210;2022-09-09T16:59:08;15.50;99.90
56308;DHT22;42217;50.422;7.210;2022-09-09T17:01:37;15.40;99.90
56308;DHT22;42217;50.422;7.210;2022-09-09T17:04:06;15.40;99.90
56308;DHT22;42217;50.422;7.210;2022-09-09T17:06:34;15.40;99.90
56308;DHT22;42217;50.422;7.210;2022-09-09T17:09:02;15.40;99.90
56308;DHT22;42217;50.422;7.210;2022-09-09T17:11:29;15.30;99.90
56308;DHT22;42217;50.422;7.210;2022-09-09T17:13:56;15.30;99.90
56308;DHT22;42217;50.422;7.210;2022-09-09T17:16:25;15.30;99.90
56308;DHT22;42217;50.422;7.210;2022-09-09T17:18:53;15.20;99.90
56308;DHT22;42217;50.422;7.210;2022-09-09T17:21:22;15.10;99.90
56308;DHT22;42217;50.422;7.210;2022-09-09T17:23:49;15.10;99.90
56308;DHT22;42217;50.422;7.210;2022-09-09T17:26:17;15.00;99.90
56308;DHT22;42217;50.422;7.210;2022-09-09T17:28:44;14.90;99.90
56308;DHT22;42217;50.422;7.210;2022-09-09T17:31:13;14.90;99.90
56308;DHT22;42217;50.422;7.210;2022-09-09T17:33:42;14.90;99.90
56308;DHT22;42217;50.422;7.210;2022-09-09T17:36:18;15.00;99.90
56308;DHT22;42217;50.422;7.210;2022-09-09T17:38:44;15.00;99.90
56308;DHT22;42217;50.422;7.210;2022-09-09T17:41:16;15.00;99.90
56308;DHT22;42217;50.422;7.210;2022-09-09T17:43:42;14.90;99.90
56308;DHT22;42217;50.422;7.210;2022-09-09T17:48:41;14.90;99.90
56308;DHT22;42217;50.422;7.210;2022-09-09T17:51:09;14.90;99.90
56308;DHT22;42217;50.422;7.210;2022-09-09T17:53:38;14.90;99.90
56308;DHT22;42217;50.422;7.210;2022-09-09T17:56:05;14.80;99.90
56308;DHT22;42217;50.422;7.210;2022-09-09T17:58:32;14.80;99.90
56308;DHT22;42217;50.422;7.210;2022-09-09T18:01:09;14.80;99.90
56308;DHT22;42217;50.422;7.210;2022-09-09T18:03:37;14.80;99.90
56308;DHT22;42217;50.422;7.210;2022-09-09T18:06:06;14.80;99.90
56308;DHT22;42217;50.422;7.210;2022-09-09T18:08:32;14.70;99.90
56308;DHT22;42217;50.422;7.210;2022-09-09T18:10:59;14.60;99.90